TimeCDT,TemperatureF,Dew PointF,Humidity,Sea Level PressureIn,VisibilityMPH,Wind Direction,Wind SpeedMPH,Gust SpeedMPH,PrecipitationIn,Events,Conditions,WindDirDegrees,DateUTC
12:13 AM,62.6,57.2,82,30.15,10.0,SSE,3.5,-,N/A,,Clear,160,2013-08-17 05:13:00
12:33 AM,60.8,57.2,88,30.15,10.0,SSE,3.5,-,N/A,,Clear,150,2013-08-17 05:33:00
12:53 AM,60.8,57.2,88,30.15,10.0,SSE,3.5,-,N/A,,Clear,160,2013-08-17 05:53:00
1:13 AM,60.8,55.4,82,30.15,10.0,SSE,3.5,-,N/A,,Clear,160,2013-08-17 06:13:00
1:33 AM,60.8,55.4,82,30.14,10.0,SSE,3.5,-,N/A,,Clear,160,2013-08-17 06:33:00
1:53 AM,59.0,55.4,88,30.14,10.0,SSE,4.6,-,N/A,,Clear,160,2013-08-17 06:53:00
2:14 AM,59.0,55.4,88,30.14,10.0,SSE,4.6,-,N/A,,Clear,150,2013-08-17 07:14:00
2:34 AM,59.0,55.4,88,30.14,10.0,SSE,3.5,-,N/A,,Clear,160,2013-08-17 07:34:00
2:53 AM,59.0,55.4,88,30.13,10.0,SSE,4.6,-,N/A,,Clear,150,2013-08-17 07:53:00
3:13 AM,57.2,55.4,94,30.13,10.0,SSE,4.6,-,N/A,,Clear,160,2013-08-17 08:13:00
3:34 AM,57.2,55.4,94,30.14,10.0,SSE,4.6,-,N/A,,Clear,160,2013-08-17 08:34:00
3:53 AM,59.0,55.4,88,30.13,10.0,South,4.6,-,N/A,,Clear,170,2013-08-17 08:53:00
4:13 AM,57.2,55.4,94,30.13,10.0,SSE,4.6,-,N/A,,Clear,160,2013-08-17 09:13:00
4:33 AM,57.2,55.4,94,30.13,10.0,SSE,4.6,-,N/A,,Clear,160,2013-08-17 09:33:00
4:53 AM,57.2,55.4,94,30.13,10.0,SSE,5.8,-,N/A,,Clear,160,2013-08-17 09:53:00
5:13 AM,57.2,55.4,94,30.13,10.0,SSE,3.5,-,N/A,,Clear,160,2013-08-17 10:13:00
5:33 AM,57.2,55.4,94,30.13,10.0,SSE,5.8,-,N/A,,Scattered Clouds,160,2013-08-17 10:33:00
5:53 AM,59.0,55.4,88,30.13,10.0,SSE,4.6,-,N/A,,Mostly Cloudy,150,2013-08-17 10:53:00
6:13 AM,59.0,55.4,88,30.13,10.0,SSE,5.8,-,N/A,,Mostly Cloudy,160,2013-08-17 11:13:00
6:33 AM,59.0,55.4,88,30.13,10.0,SSE,5.8,-,N/A,,Overcast,160,2013-08-17 11:33:00
6:53 AM,59.0,55.4,88,30.14,10.0,SSE,4.6,-,N/A,,Overcast,160,2013-08-17 11:53:00
7:13 AM,59.0,55.4,88,30.14,10.0,SSE,5.8,-,N/A,,Scattered Clouds,150,2013-08-17 12:13:00
7:33 AM,60.8,57.2,88,30.14,10.0,SSE,5.8,-,N/A,,Clear,150,2013-08-17 12:33:00
7:53 AM,62.6,57.2,82,30.14,10.0,SSE,8.1,-,N/A,,Scattered Clouds,160,2013-08-17 12:53:00
8:13 AM,64.4,57.2,77,30.14,10.0,South,8.1,-,N/A,,Overcast,170,2013-08-17 13:13:00
8:33 AM,66.2,57.2,73,30.13,10.0,South,9.2,-,N/A,,Overcast,180,2013-08-17 13:33:00
8:53 AM,66.2,57.2,73,30.13,10.0,South,11.5,-,N/A,,Scattered Clouds,180,2013-08-17 13:53:00
9:13 AM,69.8,57.2,64,30.13,10.0,South,10.4,-,N/A,,Clear,180,2013-08-17 14:13:00
9:33 AM,69.8,57.2,64,30.13,10.0,South,11.5,18.4,N/A,,Clear,180,2013-08-17 14:33:00
9:53 AM,71.6,57.2,60,30.13,10.0,South,9.2,18.4,N/A,,Clear,170,2013-08-17 14:53:00
10:14 AM,73.4,57.2,57,30.12,10.0,SSW,10.4,18.4,N/A,,Clear,200,2013-08-17 15:14:00
10:33 AM,73.4,57.2,57,30.12,10.0,South,11.5,19.6,N/A,,Clear,190,2013-08-17 15:33:00
10:53 AM,75.2,59.0,57,30.12,7.0,South,11.5,16.1,N/A,,Clear,170,2013-08-17 15:53:00
11:14 AM,77.0,60.8,57,30.12,10.0,South,11.5,18.4,N/A,,Clear,190,2013-08-17 16:14:00
11:33 AM,78.8,60.8,54,30.12,10.0,South,11.5,19.6,N/A,,Clear,180,2013-08-17 16:33:00
11:53 AM,78.8,60.8,54,30.12,10.0,South,15.0,21.9,N/A,,Clear,170,2013-08-17 16:53:00
12:13 PM,78.8,60.8,54,30.11,10.0,South,11.5,21.9,N/A,,Clear,190,2013-08-17 17:13:00
12:34 PM,78.8,60.8,54,30.10,10.0,South,10.4,19.6,N/A,,Scattered Clouds,180,2013-08-17 17:34:00
12:53 PM,80.6,60.8,51,30.10,10.0,SSW,13.8,19.6,N/A,,Scattered Clouds,200,2013-08-17 17:53:00
1:13 PM,80.6,60.8,51,30.09,10.0,South,13.8,23.0,N/A,,Scattered Clouds,170,2013-08-17 18:13:00
1:33 PM,82.4,60.8,48,30.08,10.0,South,13.8,17.3,N/A,,Scattered Clouds,170,2013-08-17 18:33:00
1:53 PM,82.4,60.8,48,30.08,10.0,South,11.5,20.7,N/A,,Scattered Clouds,180,2013-08-17 18:53:00
2:13 PM,82.4,60.8,48,30.08,10.0,South,12.7,20.7,N/A,,Scattered Clouds,180,2013-08-17 19:13:00
2:33 PM,82.4,60.8,48,30.07,7.0,SSE,11.5,17.3,N/A,,Scattered Clouds,160,2013-08-17 19:33:00
2:53 PM,82.4,60.8,48,30.07,10.0,South,15.0,-,N/A,,Mostly Cloudy,170,2013-08-17 19:53:00
3:13 PM,82.4,60.8,48,30.06,10.0,South,11.5,20.7,N/A,,Mostly Cloudy,180,2013-08-17 20:13:00
3:33 PM,82.4,60.8,48,30.06,5.0,South,9.2,19.6,N/A,,Haze,180,2013-08-17 20:33:00
3:53 PM,82.4,60.8,48,30.06,10.0,South,10.4,16.1,N/A,,Scattered Clouds,180,2013-08-17 20:53:00
4:13 PM,82.4,60.8,48,30.06,10.0,SSE,13.8,19.6,N/A,,Scattered Clouds,160,2013-08-17 21:13:00
4:33 PM,82.4,60.8,48,30.05,10.0,South,15.0,-,N/A,,Scattered Clouds,170,2013-08-17 21:33:00
4:53 PM,82.4,60.8,48,30.05,7.0,South,11.5,17.3,N/A,,Scattered Clouds,180,2013-08-17 21:53:00
5:13 PM,82.4,62.6,51,30.05,10.0,South,9.2,20.7,N/A,,Scattered Clouds,180,2013-08-17 22:13:00
5:33 PM,82.4,60.8,48,30.05,10.0,South,11.5,16.1,N/A,,Scattered Clouds,180,2013-08-17 22:33:00
5:53 PM,80.6,60.8,51,30.05,10.0,South,12.7,-,N/A,,Clear,180,2013-08-17 22:53:00
6:13 PM,80.6,60.8,51,30.05,10.0,South,8.1,16.1,N/A,,Clear,180,2013-08-17 23:13:00
6:33 PM,80.6,62.6,54,30.05,10.0,South,10.4,-,N/A,,Clear,170,2013-08-17 23:33:00
6:54 PM,80.6,60.8,51,30.05,10.0,South,13.8,19.6,N/A,,Clear,180,2013-08-17 23:54:00
7:13 PM,78.8,60.8,54,30.05,10.0,South,9.2,-,N/A,,Clear,180,2013-08-18 00:13:00
7:33 PM,78.8,60.8,54,30.05,10.0,South,9.2,-,N/A,,Clear,170,2013-08-18 00:33:00
7:54 PM,77.0,60.8,57,30.05,10.0,South,8.1,-,N/A,,Clear,170,2013-08-18 00:54:00
8:13 PM,75.2,60.8,61,30.05,10.0,South,6.9,-,N/A,,Clear,170,2013-08-18 01:13:00
8:33 PM,73.4,60.8,65,30.05,10.0,South,8.1,-,N/A,,Clear,170,2013-08-18 01:33:00
8:53 PM,71.6,60.8,69,30.05,10.0,South,6.9,-,N/A,,Clear,170,2013-08-18 01:53:00
9:13 PM,71.6,60.8,69,30.06,10.0,South,6.9,-,N/A,,Clear,170,2013-08-18 02:13:00
9:34 PM,71.6,60.8,69,30.06,10.0,South,8.1,-,N/A,,Clear,170,2013-08-18 02:34:00
9:53 PM,69.8,60.8,73,30.06,10.0,SSE,6.9,-,N/A,,Clear,160,2013-08-18 02:53:00
10:14 PM,69.8,60.8,73,30.06,10.0,South,9.2,-,N/A,,Clear,170,2013-08-18 03:14:00
10:33 PM,69.8,60.8,73,30.06,10.0,South,9.2,-,N/A,,Clear,170,2013-08-18 03:33:00
10:53 PM,69.8,59.0,68,30.05,10.0,South,9.2,-,N/A,,Clear,180,2013-08-18 03:53:00
11:13 PM,69.8,59.0,68,30.06,10.0,South,10.4,-,N/A,,Clear,180,2013-08-18 04:13:00
11:33 PM,68.0,59.0,73,30.06,10.0,South,8.1,-,N/A,,Clear,170,2013-08-18 04:33:00
11:54 PM,68.0,59.0,73,30.06,10.0,South,9.2,-,N/A,,Clear,180,2013-08-18 04:54:00